• Join FlightAware (Why Join?)
  • Login
  • US Flag 
04:42AM EST


 

Airport Tracker/Info


-or-


 

Live Flight TrackerFlight Track Log ✈ DAL3606 ✈ 06-May-2013 ✈ KATL - KIAD

Flight Track Log - Related Links

Times and Time Zones

All times are in EDT time to prevent confusion due to time zone crossing. See the DAL3606 flight status page for this flight to view local times or setup timezone preferences in your user account.

Time Position Orientation Groundspeed Altitude Reporting Facility
EDT Latitude Longitude Course Direction KTS MPH feet Rate Location/Type
09:24AM 33.6306 -84.4753 53° Northeast 440 506 2,700  Level Atlanta Center
09:25AM 33.6167 -84.5167 248° West 212 244 3,100 2,220 Climbing Atlanta TRACON
09:26AM 33.5833 -84.5833 239° Southwest 255 293 5,800 2,280 Climbing Atlanta TRACON
09:27AM 33.7932 -83.9061 54° Northeast  Level FlightAware Approximate
09:28AM 33.8605 -83.7937 54° Northeast  Level FlightAware Approximate
09:28AM 33.6675 -84.4825 45° Northeast  Level Estimated
09:28AM 33.4553 -84.4819 45° Northeast 321 369 11,500  Level Atlanta Center
09:29AM 33.9347 -83.6879 53° Northeast  Level FlightAware Approximate
09:30AM 34.0038 -83.5769 53° Northeast  Level FlightAware Approximate
09:31AM 33.6239 -84.2872 44° Northeast  Level Estimated
09:31AM 33.5875 -84.1883 44° Northeast 347 399 16,000  Level Atlanta Center
09:33AM 33.6739 -84.0901 73° East  Level Estimated
09:33AM 33.7672 -84.0389 73° East 390 449 18,800  Level Atlanta Center
09:35AM 33.8177 -83.9093 65° Northeast  Level FlightAware Approximate
09:35AM 33.8858 -83.8011 65° Northeast 405 466 21,400  Level Atlanta Center
09:36AM 33.9522 -83.6806 56° Northeast 417 480 22,400 960 Climbing Atlanta Center
09:37AM 34.0250 -83.5625 53° Northeast 426 490 23,400 1,020 Climbing Atlanta Center
09:39AM 34.0935 -83.4452 55° Northeast  Level FlightAware Approximate
09:39AM 34.1761 -83.3308 55° Northeast 434 499 25,500  Level Atlanta Center
09:40AM 34.2464 -83.2119 54° Northeast 439 505 26,500 960 Climbing Atlanta Center
09:41AM 34.3228 -83.0981 51° Northeast 439 505 27,500 960 Climbing Atlanta Center
09:42AM 34.3928 -82.9814 54° Northeast 434 499 28,500 360 Climbing Atlanta Center
09:44AM 34.4602 -82.8626 55° Northeast  Level FlightAware Approximate
09:45AM 34.6022 -82.6331 53° Northeast 444 511 29,000  Level Atlanta Center
09:46AM 34.6800 -82.5106 52° Northeast 449 517 29,000  Level Atlanta Center
09:47AM 34.7578 -82.3853 53° Northeast 454 522 29,000  Level Atlanta Center
09:48AM 34.8394 -82.2547 53° Northeast 466 536 29,000  Level Atlanta Center
09:49AM 34.9289 -82.1083 53° Northeast 477 549 29,000  Level Atlanta Center
09:51AM 34.9383 -82.0733 53° Northeast  Level FlightAware Approximate
09:51AM 35.0750 -81.8561 55° Northeast 482 555 29,000  Level Atlanta Center
09:52AM 35.1494 -81.7119 58° Northeast 487 560 29,000  Level Atlanta Center
09:53AM 35.2219 -81.5753 57° Northeast 482 555 29,000  Level Atlanta Center
09:55AM 35.3644 -81.3011 57° Northeast 482 555 29,000  Level Atlanta Center
09:56AM 35.4361 -81.1583 58° Northeast 487 560 29,000  Level Atlanta Center
09:57AM 35.5142 -81.0231 55° Northeast 492 566 29,000  Level Atlanta Center
09:59AM 35.5769 -80.8988 58° Northeast  Level FlightAware Approximate
10:02AM 35.8161 -80.4819 52° Northeast 482 555 29,000  Level Washington Center
10:03AM 35.8883 -80.3481 56° Northeast 489 563 29,000  Level Washington Center
10:04AM 35.9814 -80.2645 36° Northeast  Level Estimated
10:05AM 36.0361 -80.0844 36° Northeast 471 542 29,000  Level Washington Center
10:06AM 35.9955 -80.0501 61° Northeast  Level FlightAware Approximate
10:06AM 36.1122 -79.9475 55° Northeast 471 542 29,000  Level Washington Center
10:07AM 36.0564 -79.9297 52° Northeast  Level FlightAware Approximate
10:07AM 36.1839 -79.8100 57° Northeast 476 548 29,000  Level Washington Center
10:08AM 36.2575 -79.6747 56° Northeast 476 548 29,000  Level Washington Center
10:10AM 36.4089 -79.3858 57° Northeast 476 548 29,000  Level Washington Center
10:11AM 36.4822 -79.2472 57° Northeast 476 548 29,000  Level Washington Center
10:12AM 36.5569 -79.1164 55° Northeast 469 540 29,000 -900 Level Washington Center
10:13AM 36.6256 -78.9822 57° Northeast 469 540 27,200 -1,860 Descending Washington Center
10:14AM 36.6872 -78.8633 57° Northeast 463 533 25,400 -480 Descending Washington Center
10:16AM 36.8010 -78.6053 55° Northeast  Level FlightAware Approximate
10:18AM 36.9428 -78.4089 31° Northeast 377 434 25,000  Level Washington Center
10:20AM 37.1256 -78.2722 31° Northeast 391 450 22,900 -1,020 Descending Washington Center
10:21AM 37.2167 -78.2025 31° Northeast 391 450 22,000 -480 Descending Washington Center
10:22AM 37.3122 -78.1275 32° Northeast 375 432 22,000  Level Washington Center
10:23AM 37.3918 -77.9103 31° Northeast  Level FlightAware Approximate
10:23AM 37.3992 -78.0622 31° Northeast 369 425 22,000  Level Washington Center
10:24AM 37.4472 -77.9390 58° Northeast  Level FlightAware Approximate
10:25AM 37.5772 -77.9214 58° Northeast 369 425 19,100  Level Washington Center
10:26AM 37.6617 -77.8558 32° Northeast 369 425 17,300 -1,680 Descending Washington Center
10:27AM 37.7381 -77.7950 32° Northeast 349 402 15,800 -1,380 Descending Washington Center
10:28AM 37.8161 -77.7367 31° Northeast 333 383 14,600 -1,200 Descending Washington Center
10:29AM 37.8903 -77.6758 33° Northeast 322 371 13,400 -1,080 Descending Washington Center
10:31AM 38.0214 -77.5714 32° Northeast 317 365 11,400 -900 Descending Washington Center
10:32AM 38.1667 -77.4500 33° Northeast 303 349 10,100 -480 Descending Potomac TRACON
10:33AM 38.2500 -77.4000 25° Northeast 305 351 10,100 -180 Level Potomac TRACON
10:34AM 38.3333 -77.3833 North 307 353 9,800 -960 Descending Potomac TRACON
10:35AM 38.4000 -77.4000 349° North 296 341 8,300 -1,380 Descending Potomac TRACON
10:36AM 38.4119 -77.4094 328° Northwest 293 337 8,200 -1,680 Descending Washington Center
10:37AM 38.4886 -77.4272 350° North 293 337 6,200 -2,040 Descending Washington Center
10:38AM 38.5614 -77.4422 351° North 281 323 4,200 -840 Descending Washington Center
10:39AM 38.6667 -77.4667 350° North 231 266 4,100 -240 Descending Potomac TRACON
10:41AM 38.7833 -77.4667 360° North 206 237 3,400 -600 Descending Potomac TRACON
10:42AM 38.8500 -77.4667 360° North 196 226 2,300 -960 Descending Potomac TRACON
10:43AM 38.8833 -77.4667 360° North 147 169 1,500 -900 Descending Potomac TRACON